sensor_id;sensor_type;location;lat;lon;timestamp;P1;durP1;ratioP1;P2;durP2;ratioP2
37019;SDS011;22932;52.442;16.896;2022-09-29T00:00:27;12.30;;;11.10;;
37019;SDS011;22932;52.442;16.896;2022-09-29T00:02:54;12.20;;;10.90;;
37019;SDS011;22932;52.442;16.896;2022-09-29T00:05:22;12.20;;;11.10;;
37019;SDS011;22932;52.442;16.896;2022-09-29T00:07:49;12.60;;;11.50;;
37019;SDS011;22932;52.442;16.896;2022-09-29T00:10:17;12.70;;;11.40;;
37019;SDS011;22932;52.442;16.896;2022-09-29T00:12:45;13.10;;;11.90;;
37019;SDS011;22932;52.442;16.896;2022-09-29T00:15:12;13.30;;;11.90;;
37019;SDS011;22932;52.442;16.896;2022-09-29T00:17:40;13.70;;;12.30;;
37019;SDS011;22932;52.442;16.896;2022-09-29T00:20:07;13.40;;;12.10;;
37019;SDS011;22932;52.442;16.896;2022-09-29T00:22:35;13.40;;;12.20;;
37019;SDS011;22932;52.442;16.896;2022-09-29T00:25:03;14.60;;;13.10;;
37019;SDS011;22932;52.442;16.896;2022-09-29T00:27:31;15.90;;;13.00;;
37019;SDS011;22932;52.442;16.896;2022-09-29T00:29:59;13.90;;;12.40;;
37019;SDS011;22932;52.442;16.896;2022-09-29T00:32:26;13.50;;;12.20;;
37019;SDS011;22932;52.442;16.896;2022-09-29T00:34:54;14.00;;;12.50;;
37019;SDS011;22932;52.442;16.896;2022-09-29T00:37:21;16.40;;;14.50;;
37019;SDS011;22932;52.442;16.896;2022-09-29T00:39:49;14.80;;;12.10;;
37019;SDS011;22932;52.442;16.896;2022-09-29T00:42:17;15.90;;;13.40;;
37019;SDS011;22932;52.442;16.896;2022-09-29T00:44:53;16.10;;;14.00;;
37019;SDS011;22932;52.442;16.896;2022-09-29T00:47:27;14.40;;;13.00;;
37019;SDS011;22932;52.442;16.896;2022-09-29T00:49:57;14.00;;;12.60;;
37019;SDS011;22932;52.442;16.896;2022-09-29T00:52:28;14.30;;;12.80;;
37019;SDS011;22932;52.442;16.896;2022-09-29T00:55:00;14.20;;;12.70;;
37019;SDS011;22932;52.442;16.896;2022-09-29T00:57:32;13.30;;;12.00;;
37019;SDS011;22932;52.442;16.896;2022-09-29T01:02:31;13.10;;;11.90;;
37019;SDS011;22932;52.442;16.896;2022-09-29T01:05:02;14.20;;;12.80;;
37019;SDS011;22932;52.442;16.896;2022-09-29T01:07:35;13.80;;;12.40;;
37019;SDS011;22932;52.442;16.896;2022-09-29T01:10:03;13.00;;;11.80;;
37019;SDS011;22932;52.442;16.896;2022-09-29T01:12:32;14.70;;;13.10;;
37019;SDS011;22932;52.442;16.896;2022-09-29T01:15:00;12.60;;;11.50;;
37019;SDS011;22932;52.442;16.896;2022-09-29T01:17:28;13.60;;;12.30;;
37019;SDS011;22932;52.442;16.896;2022-09-29T01:19:58;14.00;;;12.60;;
37019;SDS011;22932;52.442;16.896;2022-09-29T01:22:38;12.40;;;11.20;;
37019;SDS011;22932;52.442;16.896;2022-09-29T01:25:30;12.30;;;11.20;;
37019;SDS011;22932;52.442;16.896;2022-09-29T01:28:22;13.20;;;11.90;;
37019;SDS011;22932;52.442;16.896;2022-09-29T01:31:13;13.30;;;12.00;;
37019;SDS011;22932;52.442;16.896;2022-09-29T01:33:50;13.50;;;12.30;;
37019;SDS011;22932;52.442;16.896;2022-09-29T01:36:30;13.30;;;12.10;;
37019;SDS011;22932;52.442;16.896;2022-09-29T01:39:10;12.10;;;11.00;;
37019;SDS011;22932;52.442;16.896;2022-09-29T01:41:45;13.30;;;12.10;;
37019;SDS011;22932;52.442;16.896;2022-09-29T01:44:19;12.40;;;11.20;;
37019;SDS011;22932;52.442;16.896;2022-09-29T01:46:52;12.90;;;11.60;;
37019;SDS011;22932;52.442;16.896;2022-09-29T01:49:25;13.30;;;12.00;;
37019;SDS011;22932;52.442;16.896;2022-09-29T01:51:58;14.70;;;13.30;;
37019;SDS011;22932;52.442;16.896;2022-09-29T01:54:29;14.50;;;13.10;;
37019;SDS011;22932;52.442;16.896;2022-09-29T01:57:01;16.40;;;14.80;;
37019;SDS011;22932;52.442;16.896;2022-09-29T01:59:36;15.90;;;14.30;;
37019;SDS011;22932;52.442;16.896;2022-09-29T02:02:09;16.50;;;14.90;;
37019;SDS011;22932;52.442;16.896;2022-09-29T02:04:41;18.30;;;16.60;;
37019;SDS011;22932;52.442;16.896;2022-09-29T02:07:13;16.50;;;14.90;;
37019;SDS011;22932;52.442;16.896;2022-09-29T02:09:46;17.40;;;15.70;;
37019;SDS011;22932;52.442;16.896;2022-09-29T02:12:19;17.70;;;16.10;;
37019;SDS011;22932;52.442;16.896;2022-09-29T02:14:52;19.60;;;17.60;;
37019;SDS011;22932;52.442;16.896;2022-09-29T02:17:21;19.20;;;17.10;;
37019;SDS011;22932;52.442;16.896;2022-09-29T02:19:52;19.30;;;17.50;;
37019;SDS011;22932;52.442;16.896;2022-09-29T02:22:20;21.10;;;18.80;;
37019;SDS011;22932;52.442;16.896;2022-09-29T02:24:48;21.00;;;18.90;;
37019;SDS011;22932;52.442;16.896;2022-09-29T02:27:21;19.50;;;17.60;;
37019;SDS011;22932;52.442;16.896;2022-09-29T02:29:48;21.40;;;19.20;;
37019;SDS011;22932;52.442;16.896;2022-09-29T02:32:17;20.60;;;18.20;;
37019;SDS011;22932;52.442;16.896;2022-09-29T02:34:45;22.90;;;20.50;;
37019;SDS011;22932;52.442;16.896;2022-09-29T02:40:08;23.90;;;20.50;;
37019;SDS011;22932;52.442;16.896;2022-09-29T02:42:58;24.10;;;21.50;;
37019;SDS011;22932;52.442;16.896;2022-09-29T02:45:45;23.10;;;20.60;;
37019;SDS011;22932;52.442;16.896;2022-09-29T02:48:29;24.70;;;22.20;;
37019;SDS011;22932;52.442;16.896;2022-09-29T02:51:15;24.20;;;21.70;;
37019;SDS011;22932;52.442;16.896;2022-09-29T02:53:49;23.30;;;20.80;;
37019;SDS011;22932;52.442;16.896;2022-09-29T02:56:28;23.70;;;21.30;;
37019;SDS011;22932;52.442;16.896;2022-09-29T02:59:07;25.20;;;21.90;;
37019;SDS011;22932;52.442;16.896;2022-09-29T03:01:46;21.80;;;19.40;;
37019;SDS011;22932;52.442;16.896;2022-09-29T03:04:16;25.10;;;22.60;;
37019;SDS011;22932;52.442;16.896;2022-09-29T03:06:44;24.20;;;21.60;;
37019;SDS011;22932;52.442;16.896;2022-09-29T03:09:11;23.20;;;20.80;;
37019;SDS011;22932;52.442;16.896;2022-09-29T03:11:39;23.10;;;20.70;;
37019;SDS011;22932;52.442;16.896;2022-09-29T03:14:07;24.10;;;20.50;;
37019;SDS011;22932;52.442;16.896;2022-09-29T03:16:37;23.70;;;21.30;;
37019;SDS011;22932;52.442;16.896;2022-09-29T03:19:05;23.70;;;21.30;;
37019;SDS011;22932;52.442;16.896;2022-09-29T03:21:32;23.90;;;21.30;;
37019;SDS011;22932;52.442;16.896;2022-09-29T03:24:01;22.10;;;19.80;;
37019;SDS011;22932;52.442;16.896;2022-09-29T03:26:28;24.00;;;21.50;;
37019;SDS011;22932;52.442;16.896;2022-09-29T03:28:56;22.30;;;20.00;;
37019;SDS011;22932;52.442;16.896;2022-09-29T03:31:23;21.80;;;19.10;;
37019;SDS011;22932;52.442;16.896;2022-09-29T03:33:51;23.80;;;20.20;;
37019;SDS011;22932;52.442;16.896;2022-09-29T03:36:18;21.30;;;19.20;;
37019;SDS011;22932;52.442;16.896;2022-09-29T03:38:46;21.90;;;19.60;;
37019;SDS011;22932;52.442;16.896;2022-09-29T03:41:13;22.70;;;20.30;;
37019;SDS011;22932;52.442;16.896;2022-09-29T03:43:41;21.50;;;19.30;;
37019;SDS011;22932;52.442;16.896;2022-09-29T03:46:08;21.60;;;19.30;;
37019;SDS011;22932;52.442;16.896;2022-09-29T03:48:37;24.20;;;21.70;;
37019;SDS011;22932;52.442;16.896;2022-09-29T03:51:06;23.30;;;21.00;;
37019;SDS011;22932;52.442;16.896;2022-09-29T03:53:34;20.20;;;18.20;;
37019;SDS011;22932;52.442;16.896;2022-09-29T03:56:02;20.70;;;18.60;;
37019;SDS011;22932;52.442;16.896;2022-09-29T03:58:30;21.00;;;18.80;;
37019;SDS011;22932;52.442;16.896;2022-09-29T04:00:57;19.90;;;17.80;;
37019;SDS011;22932;52.442;16.896;2022-09-29T04:03:26;21.70;;;19.60;;
37019;SDS011;22932;52.442;16.896;2022-09-29T04:05:54;19.80;;;17.80;;
37019;SDS011;22932;52.442;16.896;2022-09-29T04:08:22;21.20;;;19.00;;
37019;SDS011;22932;52.442;16.896;2022-09-29T04:10:49;22.70;;;20.40;;
37019;SDS011;22932;52.442;16.896;2022-09-29T04:13:17;21.50;;;19.20;;
37019;SDS011;22932;52.442;16.896;2022-09-29T04:15:46;23.30;;;19.90;;
37019;SDS011;22932;52.442;16.896;2022-09-29T04:18:14;21.20;;;19.00;;
37019;SDS011;22932;52.442;16.896;2022-09-29T04:20:41;22.70;;;20.30;;
37019;SDS011;22932;52.442;16.896;2022-09-29T04:23:09;22.30;;;19.90;;
37019;SDS011;22932;52.442;16.896;2022-09-29T04:25:37;20.70;;;18.30;;
37019;SDS011;22932;52.442;16.896;2022-09-29T04:28:05;20.20;;;17.20;;
37019;SDS011;22932;52.442;16.896;2022-09-29T04:30:32;20.30;;;18.20;;
37019;SDS011;22932;52.442;16.896;2022-09-29T04:32:59;20.30;;;18.40;;
37019;SDS011;22932;52.442;16.896;2022-09-29T04:35:27;20.80;;;18.80;;
37019;SDS011;22932;52.442;16.896;2022-09-29T04:37:54;19.10;;;17.00;;
37019;SDS011;22932;52.442;16.896;2022-09-29T04:40:24;20.20;;;18.20;;
37019;SDS011;22932;52.442;16.896;2022-09-29T04:42:51;20.40;;;18.30;;
37019;SDS011;22932;52.442;16.896;2022-09-29T04:45:19;22.50;;;20.10;;
37019;SDS011;22932;52.442;16.896;2022-09-29T04:47:46;22.50;;;20.10;;
37019;SDS011;22932;52.442;16.896;2022-09-29T04:50:14;20.20;;;17.60;;
37019;SDS011;22932;52.442;16.896;2022-09-29T04:52:42;21.70;;;19.40;;
37019;SDS011;22932;52.442;16.896;2022-09-29T04:55:10;21.20;;;19.00;;
37019;SDS011;22932;52.442;16.896;2022-09-29T04:57:38;19.50;;;17.60;;
37019;SDS011;22932;52.442;16.896;2022-09-29T05:00:08;20.70;;;18.50;;
37019;SDS011;22932;52.442;16.896;2022-09-29T05:02:37;21.50;;;19.20;;
37019;SDS011;22932;52.442;16.896;2022-09-29T05:05:05;20.80;;;18.60;;
37019;SDS011;22932;52.442;16.896;2022-09-29T05:07:35;20.10;;;17.30;;
37019;SDS011;22932;52.442;16.896;2022-09-29T05:10:05;20.10;;;17.90;;
37019;SDS011;22932;52.442;16.896;2022-09-29T05:12:34;18.50;;;16.70;;
37019;SDS011;22932;52.442;16.896;2022-09-29T05:15:01;19.80;;;17.80;;
37019;SDS011;22932;52.442;16.896;2022-09-29T05:17:31;18.70;;;16.80;;
37019;SDS011;22932;52.442;16.896;2022-09-29T05:19:58;18.30;;;16.30;;
37019;SDS011;22932;52.442;16.896;2022-09-29T05:22:26;18.00;;;16.20;;
37019;SDS011;22932;52.442;16.896;2022-09-29T05:24:53;17.30;;;15.50;;
37019;SDS011;22932;52.442;16.896;2022-09-29T05:27:20;18.60;;;16.60;;
37019;SDS011;22932;52.442;16.896;2022-09-29T05:29:48;18.10;;;16.20;;
37019;SDS011;22932;52.442;16.896;2022-09-29T05:32:15;17.00;;;15.30;;
37019;SDS011;22932;52.442;16.896;2022-09-29T05:34:43;17.50;;;15.90;;
37019;SDS011;22932;52.442;16.896;2022-09-29T05:37:10;16.90;;;15.20;;
37019;SDS011;22932;52.442;16.896;2022-09-29T05:39:38;16.50;;;14.80;;
37019;SDS011;22932;52.442;16.896;2022-09-29T05:42:09;16.60;;;15.00;;
37019;SDS011;22932;52.442;16.896;2022-09-29T05:44:37;17.80;;;16.00;;
37019;SDS011;22932;52.442;16.896;2022-09-29T05:47:04;17.40;;;15.60;;
37019;SDS011;22932;52.442;16.896;2022-09-29T05:49:32;17.80;;;15.90;;
37019;SDS011;22932;52.442;16.896;2022-09-29T05:52:01;19.90;;;17.80;;
37019;SDS011;22932;52.442;16.896;2022-09-29T05:54:28;20.30;;;17.20;;
37019;SDS011;22932;52.442;16.896;2022-09-29T05:56:56;18.80;;;16.90;;
37019;SDS011;22932;52.442;16.896;2022-09-29T05:59:23;18.60;;;16.70;;
37019;SDS011;22932;52.442;16.896;2022-09-29T06:01:51;20.10;;;18.00;;
37019;SDS011;22932;52.442;16.896;2022-09-29T06:04:18;19.50;;;17.50;;
37019;SDS011;22932;52.442;16.896;2022-09-29T06:06:46;21.30;;;19.10;;
37019;SDS011;22932;52.442;16.896;2022-09-29T06:09:13;20.10;;;18.10;;
37019;SDS011;22932;52.442;16.896;2022-09-29T06:11:41;19.60;;;17.60;;
37019;SDS011;22932;52.442;16.896;2022-09-29T06:14:09;19.10;;;17.10;;
37019;SDS011;22932;52.442;16.896;2022-09-29T06:16:36;18.80;;;16.90;;
37019;SDS011;22932;52.442;16.896;2022-09-29T06:19:04;20.20;;;18.10;;
37019;SDS011;22932;52.442;16.896;2022-09-29T06:21:31;19.70;;;17.60;;
37019;SDS011;22932;52.442;16.896;2022-09-29T06:24:00;19.00;;;16.90;;
37019;SDS011;22932;52.442;16.896;2022-09-29T06:26:28;20.00;;;17.90;;
37019;SDS011;22932;52.442;16.896;2022-09-29T06:28:55;16.60;;;14.70;;
37019;SDS011;22932;52.442;16.896;2022-09-29T06:31:24;19.90;;;17.40;;
37019;SDS011;22932;52.442;16.896;2022-09-29T06:33:55;17.60;;;15.90;;
37019;SDS011;22932;52.442;16.896;2022-09-29T06:36:23;17.50;;;15.70;;
37019;SDS011;22932;52.442;16.896;2022-09-29T06:39:13;18.90;;;17.00;;
37019;SDS011;22932;52.442;16.896;2022-09-29T06:41:42;18.20;;;16.30;;
37019;SDS011;22932;52.442;16.896;2022-09-29T06:44:13;17.60;;;15.90;;
37019;SDS011;22932;52.442;16.896;2022-09-29T06:46:41;18.60;;;16.60;;
37019;SDS011;22932;52.442;16.896;2022-09-29T06:49:09;19.90;;;17.90;;
37019;SDS011;22932;52.442;16.896;2022-09-29T06:51:37;20.10;;;18.20;;
37019;SDS011;22932;52.442;16.896;2022-09-29T06:54:05;20.90;;;18.90;;
37019;SDS011;22932;52.442;16.896;2022-09-29T06:56:32;20.10;;;18.20;;
37019;SDS011;22932;52.442;16.896;2022-09-29T06:59:00;20.30;;;18.20;;
37019;SDS011;22932;52.442;16.896;2022-09-29T07:01:28;18.80;;;17.00;;
37019;SDS011;22932;52.442;16.896;2022-09-29T07:03:55;19.50;;;17.50;;
37019;SDS011;22932;52.442;16.896;2022-09-29T07:06:25;20.30;;;18.30;;
37019;SDS011;22932;52.442;16.896;2022-09-29T07:08:53;17.20;;;15.50;;
37019;SDS011;22932;52.442;16.896;2022-09-29T07:11:21;18.30;;;16.30;;
37019;SDS011;22932;52.442;16.896;2022-09-29T07:13:49;18.60;;;16.70;;
37019;SDS011;22932;52.442;16.896;2022-09-29T07:16:17;19.20;;;17.30;;
37019;SDS011;22932;52.442;16.896;2022-09-29T07:18:45;19.60;;;17.60;;
37019;SDS011;22932;52.442;16.896;2022-09-29T07:21:14;19.50;;;17.50;;
37019;SDS011;22932;52.442;16.896;2022-09-29T07:23:42;18.80;;;16.90;;
37019;SDS011;22932;52.442;16.896;2022-09-29T07:26:11;23.50;;;21.00;;
37019;SDS011;22932;52.442;16.896;2022-09-29T07:28:41;22.70;;;20.30;;
37019;SDS011;22932;52.442;16.896;2022-09-29T07:31:09;22.00;;;19.80;;
37019;SDS011;22932;52.442;16.896;2022-09-29T07:33:38;19.10;;;17.20;;
37019;SDS011;22932;52.442;16.896;2022-09-29T07:36:06;20.60;;;18.60;;
37019;SDS011;22932;52.442;16.896;2022-09-29T07:38:34;21.60;;;18.10;;
37019;SDS011;22932;52.442;16.896;2022-09-29T07:41:01;22.10;;;19.40;;
37019;SDS011;22932;52.442;16.896;2022-09-29T07:43:30;26.00;;;21.80;;
37019;SDS011;22932;52.442;16.896;2022-09-29T07:45:58;24.80;;;21.90;;
37019;SDS011;22932;52.442;16.896;2022-09-29T07:48:26;24.50;;;21.80;;
37019;SDS011;22932;52.442;16.896;2022-09-29T07:50:59;22.80;;;20.50;;
37019;SDS011;22932;52.442;16.896;2022-09-29T07:53:27;23.20;;;20.80;;
37019;SDS011;22932;52.442;16.896;2022-09-29T07:55:55;19.20;;;17.20;;
37019;SDS011;22932;52.442;16.896;2022-09-29T07:58:28;20.40;;;18.10;;
37019;SDS011;22932;52.442;16.896;2022-09-29T08:00:57;19.90;;;17.80;;
37019;SDS011;22932;52.442;16.896;2022-09-29T08:03:25;19.80;;;17.70;;
37019;SDS011;22932;52.442;16.896;2022-09-29T08:05:54;19.20;;;17.30;;
37019;SDS011;22932;52.442;16.896;2022-09-29T08:08:23;18.40;;;16.60;;
37019;SDS011;22932;52.442;16.896;2022-09-29T08:10:50;17.40;;;15.70;;
37019;SDS011;22932;52.442;16.896;2022-09-29T08:13:18;16.50;;;14.90;;
37019;SDS011;22932;52.442;16.896;2022-09-29T08:15:46;15.30;;;13.90;;
37019;SDS011;22932;52.442;16.896;2022-09-29T08:18:13;14.30;;;13.00;;
37019;SDS011;22932;52.442;16.896;2022-09-29T08:20:41;15.70;;;14.30;;
37019;SDS011;22932;52.442;16.896;2022-09-29T08:23:08;18.20;;;16.40;;
37019;SDS011;22932;52.442;16.896;2022-09-29T08:25:35;17.60;;;15.90;;
37019;SDS011;22932;52.442;16.896;2022-09-29T08:28:03;16.70;;;15.00;;
37019;SDS011;22932;52.442;16.896;2022-09-29T08:30:30;16.50;;;15.00;;
37019;SDS011;22932;52.442;16.896;2022-09-29T08:32:58;17.70;;;16.10;;
37019;SDS011;22932;52.442;16.896;2022-09-29T08:35:25;16.10;;;14.60;;
37019;SDS011;22932;52.442;16.896;2022-09-29T08:37:53;16.50;;;14.90;;
37019;SDS011;22932;52.442;16.896;2022-09-29T08:40:22;14.90;;;13.40;;
37019;SDS011;22932;52.442;16.896;2022-09-29T08:42:55;14.60;;;13.30;;
37019;SDS011;22932;52.442;16.896;2022-09-29T08:45:29;14.30;;;13.00;;
37019;SDS011;22932;52.442;16.896;2022-09-29T08:48:03;15.00;;;13.60;;
37019;SDS011;22932;52.442;16.896;2022-09-29T08:50:36;15.80;;;14.30;;
37019;SDS011;22932;52.442;16.896;2022-09-29T08:53:12;13.60;;;12.40;;
37019;SDS011;22932;52.442;16.896;2022-09-29T08:55:42;15.10;;;13.60;;
37019;SDS011;22932;52.442;16.896;2022-09-29T08:58:15;15.70;;;14.20;;
37019;SDS011;22932;52.442;16.896;2022-09-29T09:00:44;14.90;;;13.50;;
37019;SDS011;22932;52.442;16.896;2022-09-29T09:03:24;14.20;;;12.90;;
37019;SDS011;22932;52.442;16.896;2022-09-29T09:06:16;14.70;;;13.40;;
37019;SDS011;22932;52.442;16.896;2022-09-29T09:08:56;14.70;;;13.20;;
37019;SDS011;22932;52.442;16.896;2022-09-29T09:14:49;13.70;;;12.40;;
37019;SDS011;22932;52.442;16.896;2022-09-29T09:17:43;13.90;;;12.60;;
37019;SDS011;22932;52.442;16.896;2022-09-29T09:20:27;13.50;;;12.20;;
37019;SDS011;22932;52.442;16.896;2022-09-29T09:23:03;14.50;;;13.00;;
37019;SDS011;22932;52.442;16.896;2022-09-29T09:25:38;15.60;;;13.30;;
37019;SDS011;22932;52.442;16.896;2022-09-29T09:28:13;13.50;;;12.10;;
37019;SDS011;22932;52.442;16.896;2022-09-29T09:30:45;13.40;;;12.10;;
37019;SDS011;22932;52.442;16.896;2022-09-29T09:33:20;14.00;;;12.70;;
37019;SDS011;22932;52.442;16.896;2022-09-29T09:35:56;14.10;;;12.80;;
37019;SDS011;22932;52.442;16.896;2022-09-29T09:38:36;14.20;;;12.80;;
37019;SDS011;22932;52.442;16.896;2022-09-29T09:41:10;12.60;;;11.40;;
37019;SDS011;22932;52.442;16.896;2022-09-29T09:43:42;11.70;;;10.60;;
37019;SDS011;22932;52.442;16.896;2022-09-29T09:46:16;11.00;;;10.00;;
37019;SDS011;22932;52.442;16.896;2022-09-29T09:48:48;11.70;;;10.60;;
37019;SDS011;22932;52.442;16.896;2022-09-29T09:51:29;10.40;;;9.40;;
37019;SDS011;22932;52.442;16.896;2022-09-29T09:54:09;10.20;;;9.30;;
37019;SDS011;22932;52.442;16.896;2022-09-29T09:56:49;11.10;;;10.20;;
37019;SDS011;22932;52.442;16.896;2022-09-29T09:59:32;10.30;;;9.30;;
37019;SDS011;22932;52.442;16.896;2022-09-29T10:02:11;9.90;;;9.10;;
37019;SDS011;22932;52.442;16.896;2022-09-29T18:11:52;24.70;;;20.90;;
37019;SDS011;22932;52.442;16.896;2022-09-29T18:14:21;28.80;;;22.20;;
37019;SDS011;22932;52.442;16.896;2022-09-29T18:16:50;23.20;;;20.60;;
37019;SDS011;22932;52.442;16.896;2022-09-29T18:19:22;27.80;;;22.50;;
37019;SDS011;22932;52.442;16.896;2022-09-29T18:21:52;26.10;;;22.00;;
37019;SDS011;22932;52.442;16.896;2022-09-29T18:24:23;24.00;;;21.30;;
37019;SDS011;22932;52.442;16.896;2022-09-29T18:26:53;21.00;;;17.90;;
37019;SDS011;22932;52.442;16.896;2022-09-29T18:29:22;18.50;;;16.60;;
37019;SDS011;22932;52.442;16.896;2022-09-29T18:31:52;21.40;;;19.20;;
37019;SDS011;22932;52.442;16.896;2022-09-29T18:34:21;20.70;;;18.40;;
37019;SDS011;22932;52.442;16.896;2022-09-29T18:36:52;21.60;;;17.80;;
37019;SDS011;22932;52.442;16.896;2022-09-29T18:39:21;20.50;;;17.00;;
37019;SDS011;22932;52.442;16.896;2022-09-29T18:41:51;22.30;;;19.90;;
37019;SDS011;22932;52.442;16.896;2022-09-29T18:44:20;20.50;;;18.40;;
37019;SDS011;22932;52.442;16.896;2022-09-29T18:46:55;19.70;;;17.60;;
37019;SDS011;22932;52.442;16.896;2022-09-29T18:49:25;19.90;;;17.80;;
37019;SDS011;22932;52.442;16.896;2022-09-29T18:51:54;22.00;;;18.70;;
37019;SDS011;22932;52.442;16.896;2022-09-29T18:54:25;18.50;;;16.60;;
37019;SDS011;22932;52.442;16.896;2022-09-29T18:56:54;21.70;;;19.40;;
37019;SDS011;22932;52.442;16.896;2022-09-29T18:59:24;19.80;;;17.90;;
37019;SDS011;22932;52.442;16.896;2022-09-29T19:01:53;19.80;;;17.70;;
37019;SDS011;22932;52.442;16.896;2022-09-29T19:04:23;19.20;;;17.40;;
37019;SDS011;22932;52.442;16.896;2022-09-29T19:06:52;22.10;;;16.60;;
37019;SDS011;22932;52.442;16.896;2022-09-29T19:09:22;21.10;;;18.90;;
37019;SDS011;22932;52.442;16.896;2022-09-29T19:11:51;23.20;;;19.80;;
37019;SDS011;22932;52.442;16.896;2022-09-29T19:14:21;20.70;;;18.30;;
37019;SDS011;22932;52.442;16.896;2022-09-29T19:16:50;19.50;;;17.60;;
37019;SDS011;22932;52.442;16.896;2022-09-29T19:19:20;19.20;;;17.10;;
37019;SDS011;22932;52.442;16.896;2022-09-29T19:21:50;20.80;;;18.50;;
37019;SDS011;22932;52.442;16.896;2022-09-29T19:24:20;18.80;;;16.90;;
37019;SDS011;22932;52.442;16.896;2022-09-29T19:26:49;20.70;;;18.10;;
37019;SDS011;22932;52.442;16.896;2022-09-29T19:29:19;19.70;;;17.50;;
37019;SDS011;22932;52.442;16.896;2022-09-29T19:31:48;20.40;;;18.30;;
37019;SDS011;22932;52.442;16.896;2022-09-29T19:34:18;21.80;;;18.90;;
37019;SDS011;22932;52.442;16.896;2022-09-29T19:36:47;21.40;;;19.20;;
37019;SDS011;22932;52.442;16.896;2022-09-29T19:39:17;20.20;;;18.10;;
37019;SDS011;22932;52.442;16.896;2022-09-29T19:41:46;22.60;;;18.50;;
37019;SDS011;22932;52.442;16.896;2022-09-29T19:44:16;21.40;;;18.90;;
37019;SDS011;22932;52.442;16.896;2022-09-29T19:46:46;21.50;;;19.30;;
37019;SDS011;22932;52.442;16.896;2022-09-29T19:49:16;22.80;;;20.30;;
37019;SDS011;22932;52.442;16.896;2022-09-29T19:51:46;23.10;;;19.50;;
37019;SDS011;22932;52.442;16.896;2022-09-29T19:54:23;21.70;;;19.50;;
37019;SDS011;22932;52.442;16.896;2022-09-29T19:56:58;22.40;;;20.00;;
37019;SDS011;22932;52.442;16.896;2022-09-29T19:59:34;23.80;;;19.30;;
37019;SDS011;22932;52.442;16.896;2022-09-29T20:02:06;24.60;;;19.90;;
37019;SDS011;22932;52.442;16.896;2022-09-29T20:04:41;24.40;;;20.70;;
37019;SDS011;22932;52.442;16.896;2022-09-29T20:07:11;22.60;;;20.00;;
37019;SDS011;22932;52.442;16.896;2022-09-29T20:09:40;23.70;;;21.10;;
37019;SDS011;22932;52.442;16.896;2022-09-29T20:12:10;24.80;;;20.50;;
37019;SDS011;22932;52.442;16.896;2022-09-29T20:14:39;24.60;;;21.80;;
37019;SDS011;22932;52.442;16.896;2022-09-29T20:17:09;24.90;;;22.30;;
37019;SDS011;22932;52.442;16.896;2022-09-29T20:19:39;27.20;;;24.40;;
37019;SDS011;22932;52.442;16.896;2022-09-29T20:22:09;26.50;;;21.50;;
37019;SDS011;22932;52.442;16.896;2022-09-29T20:24:38;25.30;;;21.90;;
37019;SDS011;22932;52.442;16.896;2022-09-29T20:27:08;26.80;;;23.90;;
37019;SDS011;22932;52.442;16.896;2022-09-29T20:29:37;27.20;;;24.40;;
37019;SDS011;22932;52.442;16.896;2022-09-29T20:32:07;27.50;;;24.30;;
37019;SDS011;22932;52.442;16.896;2022-09-29T20:34:37;28.60;;;24.60;;
37019;SDS011;22932;52.442;16.896;2022-09-29T20:37:06;27.50;;;24.70;;
37019;SDS011;22932;52.442;16.896;2022-09-29T20:39:36;28.80;;;25.70;;
37019;SDS011;22932;52.442;16.896;2022-09-29T20:42:06;28.20;;;24.40;;
37019;SDS011;22932;52.442;16.896;2022-09-29T20:44:37;29.00;;;24.90;;
37019;SDS011;22932;52.442;16.896;2022-09-29T20:47:06;33.30;;;27.40;;
37019;SDS011;22932;52.442;16.896;2022-09-29T20:49:36;28.30;;;24.50;;
37019;SDS011;22932;52.442;16.896;2022-09-29T20:52:06;31.00;;;25.20;;
37019;SDS011;22932;52.442;16.896;2022-09-29T20:54:35;29.00;;;25.50;;
37019;SDS011;22932;52.442;16.896;2022-09-29T20:57:05;30.70;;;27.40;;
37019;SDS011;22932;52.442;16.896;2022-09-29T20:59:34;32.30;;;27.80;;
37019;SDS011;22932;52.442;16.896;2022-09-29T21:02:04;33.50;;;28.80;;
37019;SDS011;22932;52.442;16.896;2022-09-29T21:04:35;32.80;;;29.10;;
37019;SDS011;22932;52.442;16.896;2022-09-29T21:07:04;33.10;;;29.50;;
37019;SDS011;22932;52.442;16.896;2022-09-29T21:09:54;33.60;;;30.00;;
37019;SDS011;22932;52.442;16.896;2022-09-29T21:12:26;36.10;;;30.40;;
37019;SDS011;22932;52.442;16.896;2022-09-29T21:14:58;30.60;;;27.40;;
37019;SDS011;22932;52.442;16.896;2022-09-29T21:17:28;33.00;;;28.60;;
37019;SDS011;22932;52.442;16.896;2022-09-29T21:19:58;31.50;;;28.10;;
37019;SDS011;22932;52.442;16.896;2022-09-29T21:22:27;32.40;;;27.20;;
37019;SDS011;22932;52.442;16.896;2022-09-29T21:24:57;35.90;;;30.00;;
37019;SDS011;22932;52.442;16.896;2022-09-29T21:27:27;37.60;;;30.90;;
37019;SDS011;22932;52.442;16.896;2022-09-29T21:29:57;36.40;;;29.60;;
37019;SDS011;22932;52.442;16.896;2022-09-29T21:32:27;34.20;;;30.00;;
37019;SDS011;22932;52.442;16.896;2022-09-29T21:34:57;33.10;;;28.50;;
37019;SDS011;22932;52.442;16.896;2022-09-29T21:37:28;33.90;;;28.90;;
37019;SDS011;22932;52.442;16.896;2022-09-29T21:39:58;32.20;;;28.00;;
37019;SDS011;22932;52.442;16.896;2022-09-29T21:42:28;31.70;;;28.50;;
37019;SDS011;22932;52.442;16.896;2022-09-29T21:45:00;32.10;;;27.40;;
37019;SDS011;22932;52.442;16.896;2022-09-29T21:47:30;32.90;;;29.30;;
37019;SDS011;22932;52.442;16.896;2022-09-29T21:50:13;31.90;;;28.10;;
37019;SDS011;22932;52.442;16.896;2022-09-29T21:52:43;35.60;;;28.70;;
37019;SDS011;22932;52.442;16.896;2022-09-29T21:55:13;35.50;;;29.60;;
37019;SDS011;22932;52.442;16.896;2022-09-29T21:57:42;34.70;;;29.20;;
37019;SDS011;22932;52.442;16.896;2022-09-29T22:00:13;36.20;;;30.00;;
37019;SDS011;22932;52.442;16.896;2022-09-29T22:02:43;35.00;;;28.90;;
37019;SDS011;22932;52.442;16.896;2022-09-29T22:05:13;36.30;;;30.50;;
37019;SDS011;22932;52.442;16.896;2022-09-29T22:07:43;37.50;;;32.40;;
37019;SDS011;22932;52.442;16.896;2022-09-29T22:10:13;34.80;;;30.10;;
37019;SDS011;22932;52.442;16.896;2022-09-29T22:12:43;34.00;;;30.10;;
37019;SDS011;22932;52.442;16.896;2022-09-29T22:15:12;34.50;;;30.10;;
37019;SDS011;22932;52.442;16.896;2022-09-29T22:17:42;36.90;;;33.00;;
37019;SDS011;22932;52.442;16.896;2022-09-29T22:20:12;37.50;;;32.60;;
37019;SDS011;22932;52.442;16.896;2022-09-29T22:22:41;36.60;;;32.80;;
37019;SDS011;22932;52.442;16.896;2022-09-29T22:25:11;36.60;;;32.70;;
37019;SDS011;22932;52.442;16.896;2022-09-29T22:27:41;38.00;;;32.40;;
37019;SDS011;22932;52.442;16.896;2022-09-29T22:30:11;35.70;;;32.00;;
37019;SDS011;22932;52.442;16.896;2022-09-29T22:32:41;36.30;;;32.20;;
37019;SDS011;22932;52.442;16.896;2022-09-29T22:35:10;35.00;;;31.20;;
37019;SDS011;22932;52.442;16.896;2022-09-29T22:37:40;33.30;;;29.80;;
37019;SDS011;22932;52.442;16.896;2022-09-29T22:40:10;34.00;;;29.90;;
37019;SDS011;22932;52.442;16.896;2022-09-29T22:42:39;32.10;;;28.80;;